createdAt,value
2018-07-27T00:00:59.374Z,23.40
2018-07-27T00:03:28.318Z,23.50
2018-07-27T00:05:57.268Z,23.50
2018-07-27T00:08:26.209Z,23.50
2018-07-27T00:10:55.144Z,23.50
2018-07-27T00:13:24.514Z,23.50
2018-07-27T00:15:53.408Z,23.50
2018-07-27T00:18:22.375Z,23.50
2018-07-27T00:20:51.300Z,23.50
2018-07-27T00:23:20.312Z,23.50
2018-07-27T00:25:49.244Z,23.50
2018-07-27T00:28:18.556Z,23.50
2018-07-27T00:30:47.817Z,23.60
2018-07-27T00:33:16.804Z,23.60
2018-07-27T00:35:46.112Z,23.60
2018-07-27T00:38:15.139Z,23.60
2018-07-27T00:40:44.037Z,23.50
2018-07-27T00:43:13.047Z,23.50
2018-07-27T00:45:41.967Z,23.50
2018-07-27T00:48:11.071Z,23.40
2018-07-27T00:50:40.010Z,23.40
2018-07-27T00:53:08.991Z,23.40
2018-07-27T00:55:38.040Z,23.30
2018-07-27T00:58:07.103Z,23.30
2018-07-27T01:00:36.036Z,23.20
2018-07-27T01:03:05.032Z,23.20
2018-07-27T01:05:33.955Z,23.20
2018-07-27T01:08:03.138Z,23.10
2018-07-27T01:10:32.008Z,23.10
2018-07-27T01:13:01.576Z,23.10
2018-07-27T01:15:30.993Z,23.00
2018-07-27T01:17:59.987Z,23.00
2018-07-27T01:20:29.016Z,23.00
2018-07-27T01:22:57.971Z,23.00
2018-07-27T01:25:26.937Z,22.90
2018-07-27T01:27:55.885Z,22.90
2018-07-27T01:30:25.167Z,22.80
2018-07-27T01:32:54.110Z,22.80
2018-07-27T01:35:23.465Z,22.80
2018-07-27T01:37:52.397Z,22.70
2018-07-27T01:40:21.369Z,22.70
2018-07-27T01:42:50.327Z,22.70
2018-07-27T01:45:19.241Z,22.60
2018-07-27T01:47:48.189Z,22.60
2018-07-27T01:50:17.108Z,22.60
2018-07-27T01:52:46.244Z,22.60
2018-07-27T01:55:15.415Z,22.60
2018-07-27T01:57:44.350Z,22.50
2018-07-27T02:00:13.313Z,22.50
2018-07-27T02:02:42.255Z,22.50
2018-07-27T02:05:11.564Z,22.40
2018-07-27T02:10:09.339Z,22.40
2018-07-27T02:12:38.613Z,22.30
2018-07-27T02:15:08.569Z,22.30
2018-07-27T02:17:37.868Z,22.20
2018-07-27T02:20:06.828Z,22.20
2018-07-27T02:22:36.274Z,22.20
2018-07-27T02:25:05.540Z,22.20
2018-07-27T02:27:34.478Z,22.20
2018-07-27T02:30:03.474Z,22.20
2018-07-27T02:32:32.559Z,22.10
2018-07-27T02:35:01.563Z,22.20
2018-07-27T02:37:30.492Z,22.10
2018-07-27T02:39:59.522Z,22.10
2018-07-27T02:42:29.360Z,22.00
2018-07-27T02:44:58.317Z,22.00
2018-07-27T02:47:27.607Z,22.00
2018-07-27T02:49:56.521Z,22.00
2018-07-27T02:52:25.679Z,21.90
2018-07-27T02:54:54.819Z,21.90
2018-07-27T02:57:23.817Z,21.90
2018-07-27T02:59:52.769Z,21.90
2018-07-27T03:02:21.691Z,21.80
2018-07-27T03:04:50.623Z,21.80
2018-07-27T03:07:19.884Z,21.80
2018-07-27T03:09:48.924Z,21.80
2018-07-27T03:12:17.990Z,21.80
2018-07-27T03:14:46.967Z,21.80
2018-07-27T03:17:15.893Z,21.70
2018-07-27T03:19:44.835Z,21.70
2018-07-27T03:22:14.261Z,21.60
2018-07-27T03:24:43.337Z,21.60
2018-07-27T03:27:12.291Z,21.60
2018-07-27T03:29:41.235Z,21.60
2018-07-27T03:32:10.211Z,21.60
2018-07-27T03:34:39.141Z,21.60
2018-07-27T03:37:08.076Z,21.60
2018-07-27T03:39:37.040Z,21.60
2018-07-27T03:42:06.371Z,21.60
2018-07-27T03:44:35.638Z,21.60
2018-07-27T03:47:04.670Z,21.60
2018-07-27T03:49:33.603Z,21.60
2018-07-27T03:52:02.894Z,21.50
2018-07-27T03:54:31.808Z,21.60
2018-07-27T03:57:00.748Z,21.60
2018-07-27T03:59:29.680Z,21.60
2018-07-27T04:01:58.774Z,21.70
2018-07-27T04:04:27.727Z,21.70
2018-07-27T04:06:56.735Z,21.70
2018-07-27T04:09:25.664Z,21.70
2018-07-27T04:11:54.634Z,21.60
2018-07-27T04:14:23.688Z,21.70
2018-07-27T04:16:52.727Z,21.80
2018-07-27T04:19:21.677Z,21.70
2018-07-27T04:24:19.296Z,21.80
2018-07-27T04:26:48.249Z,21.70
2018-07-27T04:29:17.339Z,21.80
2018-07-27T04:31:46.331Z,21.80
2018-07-27T04:34:15.342Z,21.80
2018-07-27T04:36:44.436Z,21.80
2018-07-27T04:39:13.361Z,21.80
2018-07-27T04:41:42.679Z,21.80
2018-07-27T04:44:11.621Z,21.90
2018-07-27T04:46:40.702Z,21.80
2018-07-27T04:49:10.067Z,21.80
2018-07-27T04:51:39.011Z,21.80
2018-07-27T04:54:07.957Z,21.80
2018-07-27T04:56:37.090Z,21.80
2018-07-27T04:59:06.495Z,21.80
2018-07-27T05:01:35.474Z,21.80
2018-07-27T05:04:04.817Z,21.80
2018-07-27T05:06:33.774Z,21.90
2018-07-27T05:09:08.161Z,22.00
2018-07-27T05:11:37.097Z,22.00
2018-07-27T05:14:06.373Z,22.00
2018-07-27T05:16:35.391Z,22.10
2018-07-27T05:19:04.385Z,22.20
2018-07-27T05:21:34.075Z,22.30
2018-07-27T05:24:02.991Z,22.40
2018-07-27T05:26:32.094Z,22.50
2018-07-27T05:29:01.034Z,22.50
2018-07-27T05:31:30.718Z,22.60
2018-07-27T05:33:59.678Z,22.60
2018-07-27T05:36:28.658Z,22.60
2018-07-27T05:38:58.150Z,22.60
2018-07-27T05:41:27.268Z,22.70
2018-07-27T05:43:56.197Z,22.70
2018-07-27T05:46:25.190Z,22.80
2018-07-27T05:48:54.690Z,22.80
2018-07-27T05:51:23.608Z,22.90
2018-07-27T05:53:52.632Z,23.00
2018-07-27T05:56:21.574Z,23.00
2018-07-27T05:58:50.536Z,23.10
2018-07-27T06:01:19.581Z,23.10
2018-07-27T06:03:48.543Z,23.10
2018-07-27T06:06:17.806Z,23.20
2018-07-27T06:08:46.767Z,23.20
2018-07-27T06:11:15.964Z,23.30
2018-07-27T06:13:45.050Z,23.40
2018-07-27T06:16:14.366Z,23.50
2018-07-27T06:18:43.350Z,23.50
2018-07-27T06:21:12.377Z,23.60
2018-07-27T06:23:41.587Z,23.60
2018-07-27T06:26:10.734Z,23.60
2018-07-27T06:28:39.682Z,23.70
2018-07-27T06:31:09.060Z,23.70
2018-07-27T06:33:38.002Z,23.80
2018-07-27T06:36:07.298Z,23.80
2018-07-27T06:38:36.218Z,23.80
2018-07-27T06:41:05.336Z,23.90
2018-07-27T06:43:34.875Z,24.00
2018-07-27T06:46:04.213Z,24.10
2018-07-27T06:48:33.651Z,24.10
2018-07-27T06:51:02.787Z,24.20
2018-07-27T06:53:31.743Z,24.30
2018-07-27T06:56:00.705Z,24.40
2018-07-27T06:58:29.663Z,24.60
2018-07-27T07:00:58.632Z,24.60
2018-07-27T07:03:28.096Z,24.70
2018-07-27T07:05:57.219Z,24.80
2018-07-27T07:08:26.309Z,24.90
2018-07-27T07:10:55.276Z,25.00
2018-07-27T07:13:24.260Z,25.10
2018-07-27T07:15:53.190Z,25.20
2018-07-27T07:20:50.924Z,25.40
2018-07-27T07:23:19.871Z,25.50
2018-07-27T07:25:48.946Z,25.50
2018-07-27T07:28:18.051Z,25.60
2018-07-27T07:30:47.002Z,25.70
2018-07-27T07:33:15.987Z,25.70
2018-07-27T07:35:45.114Z,25.80
2018-07-27T07:38:14.058Z,25.80
2018-07-27T07:40:43.018Z,25.80
2018-07-27T07:43:12.019Z,25.90
2018-07-27T07:45:41.008Z,26.00
2018-07-27T07:48:09.953Z,26.00
2018-07-27T07:50:38.996Z,26.10
2018-07-27T07:53:08.074Z,26.20
2018-07-27T07:55:37.426Z,26.40
2018-07-27T07:58:07.514Z,26.40
2018-07-27T08:00:36.735Z,26.50
2018-07-27T08:03:06.279Z,26.60
2018-07-27T08:05:35.361Z,26.70
2018-07-27T08:08:05.205Z,26.80
2018-07-27T08:10:34.710Z,26.90
2018-07-27T08:13:03.985Z,27.00
2018-07-27T08:15:33.003Z,27.00
2018-07-27T08:18:01.995Z,27.00
2018-07-27T08:20:30.687Z,27.10
2018-07-27T08:22:59.343Z,27.20
2018-07-27T08:25:36.613Z,27.40
2018-07-27T08:28:43.889Z,27.50
2018-07-27T08:31:12.684Z,27.60
2018-07-27T08:33:41.509Z,27.80
2018-07-27T08:36:10.388Z,27.90
2018-07-27T08:38:39.147Z,27.90
2018-07-27T08:41:08.054Z,28.00
2018-07-27T08:43:36.882Z,28.00
2018-07-27T08:46:05.613Z,28.00
2018-07-27T08:48:34.281Z,28.00
2018-07-27T08:51:02.939Z,28.00
2018-07-27T08:53:31.629Z,28.00
2018-07-27T08:56:00.273Z,28.10
2018-07-27T08:58:29.023Z,28.20
2018-07-27T09:00:57.780Z,28.30
2018-07-27T09:03:26.769Z,28.40
2018-07-27T09:05:55.808Z,28.40
2018-07-27T09:08:24.478Z,28.50
2018-07-27T09:10:53.556Z,28.50
2018-07-27T09:13:22.288Z,28.50
2018-07-27T09:15:51.280Z,28.50
2018-07-27T09:18:20.007Z,28.60
2018-07-27T09:20:49.010Z,28.80
2018-07-27T09:23:17.668Z,28.90
2018-07-27T09:25:46.497Z,29.00
2018-07-27T09:28:15.272Z,29.20
2018-07-27T09:30:43.924Z,29.20
2018-07-27T09:33:12.580Z,29.20
2018-07-27T09:35:41.318Z,29.50
2018-07-27T09:38:09.951Z,29.60
2018-07-27T09:40:39.088Z,29.70
2018-07-27T09:43:07.816Z,29.90
2018-07-27T09:45:36.484Z,30.00
2018-07-27T09:48:05.236Z,30.00
2018-07-27T09:50:33.991Z,29.80
2018-07-27T09:53:02.777Z,29.70
2018-07-27T09:55:31.997Z,29.70
2018-07-27T09:58:00.820Z,29.60
2018-07-27T10:00:35.485Z,29.60
2018-07-27T10:03:04.253Z,29.40
2018-07-27T10:05:32.923Z,29.30
2018-07-27T10:08:01.597Z,29.20
2018-07-27T10:10:30.417Z,29.20
2018-07-27T10:12:59.645Z,29.20
2018-07-27T10:15:28.897Z,29.20
2018-07-27T10:17:57.635Z,29.20
2018-07-27T10:20:26.416Z,29.40
2018-07-27T10:22:55.107Z,29.50
2018-07-27T10:25:23.756Z,29.50
2018-07-27T10:27:52.482Z,29.50
2018-07-27T10:30:21.326Z,29.50
2018-07-27T10:32:50.017Z,29.60
2018-07-27T10:35:18.695Z,29.80
2018-07-27T10:37:47.895Z,29.80
2018-07-27T10:40:16.632Z,29.90
2018-07-27T10:42:45.305Z,29.90
2018-07-27T10:45:14.321Z,30.00
2018-07-27T10:47:42.983Z,30.00
2018-07-27T10:50:11.730Z,30.10
2018-07-27T10:52:40.637Z,30.30
2018-07-27T10:55:09.703Z,30.40
2018-07-27T10:57:38.733Z,30.50
2018-07-27T11:02:40.542Z,30.60
2018-07-27T11:05:09.619Z,30.80
2018-07-27T11:07:38.315Z,30.90
2018-07-27T11:10:07.795Z,31.00
2018-07-27T11:15:06.241Z,31.20
2018-07-27T11:17:34.904Z,31.20
2018-07-27T11:20:04.468Z,31.30
2018-07-27T11:22:33.579Z,31.50
2018-07-27T11:25:02.203Z,31.50
2018-07-27T11:27:31.048Z,31.60
2018-07-27T11:32:28.343Z,32.10
2018-07-27T11:34:57.009Z,32.40
2018-07-27T11:37:25.864Z,32.40
2018-07-27T11:39:54.720Z,32.20
2018-07-27T11:42:23.806Z,32.10
2018-07-27T11:44:52.656Z,31.90
2018-07-27T11:47:21.336Z,31.30
2018-07-27T11:49:50.022Z,30.60
2018-07-27T11:52:18.687Z,30.20
2018-07-27T11:54:47.336Z,30.20
2018-07-27T11:57:16.480Z,30.20
2018-07-27T11:59:45.204Z,30.10
2018-07-27T12:02:14.172Z,30.10
2018-07-27T12:04:42.923Z,30.10
2018-07-27T12:07:11.602Z,30.10
2018-07-27T12:09:40.608Z,30.10
2018-07-27T12:12:09.550Z,30.20
2018-07-27T12:14:38.305Z,30.30
2018-07-27T12:17:07.092Z,30.30
2018-07-27T12:19:35.788Z,30.20
2018-07-27T12:22:04.642Z,30.40
2018-07-27T12:24:33.278Z,30.50
2018-07-27T12:27:01.998Z,30.70
2018-07-27T12:29:31.200Z,30.80
2018-07-27T12:31:59.996Z,30.90
2018-07-27T12:34:28.732Z,30.90
2018-07-27T12:36:57.388Z,30.90
2018-07-27T12:39:26.099Z,30.90
2018-07-27T12:41:54.887Z,30.90
2018-07-27T12:44:23.499Z,31.10
2018-07-27T12:46:52.159Z,31.30
2018-07-27T12:51:49.235Z,31.40
2018-07-27T12:54:17.909Z,31.40
2018-07-27T12:56:46.645Z,31.50
2018-07-27T12:59:15.421Z,31.50
2018-07-27T13:01:44.135Z,31.50
2018-07-27T13:04:12.969Z,31.50
2018-07-27T13:06:41.609Z,31.60
2018-07-27T13:09:11.905Z,31.90
2018-07-27T13:11:41.353Z,32.00
2018-07-27T13:14:10.023Z,32.10
2018-07-27T13:16:38.631Z,32.10
2018-07-27T13:19:07.293Z,32.10
2018-07-27T13:21:35.983Z,32.00
2018-07-27T13:24:05.150Z,32.20
2018-07-27T13:26:34.133Z,32.20
2018-07-27T13:29:02.982Z,32.30
2018-07-27T13:31:56.080Z,32.50
2018-07-27T13:34:57.894Z,32.80
2018-07-27T13:37:27.852Z,32.70
2018-07-27T13:39:57.682Z,32.90
2018-07-27T13:42:27.573Z,33.00
2018-07-27T13:44:56.652Z,32.90
2018-07-27T13:47:25.310Z,32.90
2018-07-27T13:49:54.021Z,33.00
2018-07-27T13:52:22.860Z,33.10
2018-07-27T13:54:51.922Z,33.20
2018-07-27T13:57:20.671Z,33.40
2018-07-27T13:59:49.354Z,33.70
2018-07-27T14:02:18.038Z,33.80
2018-07-27T14:04:46.764Z,33.70
2018-07-27T14:07:15.762Z,33.60
2018-07-27T14:09:44.580Z,33.60
2018-07-27T14:12:13.279Z,33.70
2018-07-27T14:14:41.911Z,33.80
2018-07-27T14:19:38.892Z,33.80
2018-07-27T14:22:07.781Z,34.00
2018-07-27T14:24:36.492Z,34.20
2018-07-27T14:27:05.547Z,34.20
2018-07-27T14:29:34.258Z,34.60
2018-07-27T14:32:03.385Z,34.70
2018-07-27T14:34:32.056Z,34.80
2018-07-27T14:37:01.063Z,35.00
2018-07-27T14:39:29.998Z,35.20
2018-07-27T14:44:27.087Z,35.70
2018-07-27T14:46:55.974Z,36.00
2018-07-27T14:49:24.642Z,36.30
2018-07-27T14:51:53.729Z,36.30
2018-07-27T14:54:22.377Z,36.20
2018-07-27T14:56:51.085Z,35.60
2018-07-27T14:59:19.737Z,35.00
2018-07-27T15:01:48.533Z,34.40
2018-07-27T15:04:17.216Z,34.00
2018-07-27T15:06:45.863Z,33.70
2018-07-27T15:09:15.174Z,33.50
2018-07-27T15:11:44.694Z,33.50
2018-07-27T15:14:13.351Z,33.40
2018-07-27T15:16:42.032Z,33.50
2018-07-27T15:19:10.653Z,33.30
2018-07-27T15:21:39.261Z,33.30
2018-07-27T15:24:08.001Z,33.10
2018-07-27T15:26:37.053Z,32.90
2018-07-27T15:29:05.869Z,32.90
2018-07-27T15:31:34.992Z,33.00
2018-07-27T15:34:03.750Z,33.20
2018-07-27T15:36:34.042Z,33.20
2018-07-27T15:39:10.946Z,33.00
2018-07-27T15:41:39.820Z,32.60
2018-07-27T15:44:08.505Z,32.20
2018-07-27T15:46:37.180Z,31.90
2018-07-27T15:49:06.082Z,31.60
2018-07-27T15:51:34.720Z,31.00
2018-07-27T15:54:03.372Z,30.60
2018-07-27T15:56:32.004Z,30.30
2018-07-27T15:59:00.617Z,30.10
2018-07-27T16:01:29.318Z,29.80
2018-07-27T16:03:58.121Z,29.60
2018-07-27T16:06:27.308Z,28.60
2018-07-27T16:08:56.004Z,27.90
2018-07-27T16:11:24.697Z,27.30
2018-07-27T16:13:53.382Z,26.00
2018-07-27T16:16:22.648Z,24.70
2018-07-27T16:18:51.586Z,23.50
2018-07-27T16:21:21.067Z,22.80
2018-07-27T16:26:18.691Z,22.70
2018-07-27T16:28:47.863Z,23.00
2018-07-27T16:31:16.858Z,23.10
2018-07-27T16:33:45.804Z,23.10
2018-07-27T16:36:15.259Z,23.10
2018-07-27T16:38:44.303Z,23.20
2018-07-27T16:41:13.383Z,23.30
2018-07-27T16:43:42.573Z,23.50
2018-07-27T16:46:17.555Z,23.60
2018-07-27T16:48:51.968Z,23.70
2018-07-27T16:51:21.149Z,23.70
2018-07-27T16:53:50.190Z,23.80
2018-07-27T16:56:19.163Z,23.80
2018-07-27T16:58:48.171Z,23.90
2018-07-27T17:01:19.124Z,23.90
2018-07-27T17:03:48.103Z,23.90
2018-07-27T17:06:17.205Z,24.00
2018-07-27T17:08:46.360Z,24.00
2018-07-27T17:11:15.721Z,24.10
2018-07-27T17:13:47.645Z,24.10
2018-07-27T17:16:16.732Z,24.10
2018-07-27T17:18:45.822Z,24.10
2018-07-27T17:21:14.818Z,24.10
2018-07-27T17:23:43.796Z,24.10
2018-07-27T17:26:12.722Z,24.00
2018-07-27T17:28:41.998Z,24.10
2018-07-27T17:31:11.014Z,24.10
2018-07-27T17:33:40.240Z,24.10
2018-07-27T17:36:09.188Z,24.10
2018-07-27T17:38:38.508Z,24.00
2018-07-27T17:41:08.212Z,24.10
2018-07-27T17:43:37.529Z,24.10
2018-07-27T17:46:07.208Z,24.00
2018-07-27T17:48:36.312Z,23.90
2018-07-27T17:51:05.620Z,23.90
2018-07-27T17:53:34.894Z,23.90
2018-07-27T17:56:03.868Z,23.90
2018-07-27T17:58:32.846Z,24.00
2018-07-27T18:01:01.801Z,24.00
2018-07-27T18:03:30.801Z,24.00
2018-07-27T18:05:59.760Z,24.00
2018-07-27T18:08:29.140Z,24.00
2018-07-27T18:10:58.096Z,23.90
2018-07-27T18:13:27.089Z,23.90
2018-07-27T18:15:56.006Z,23.90
2018-07-27T18:18:24.965Z,24.00
2018-07-27T18:20:53.928Z,24.00
2018-07-27T18:23:23.428Z,24.00
2018-07-27T18:25:52.463Z,24.00
2018-07-27T18:28:21.774Z,24.00
2018-07-27T18:30:50.815Z,24.00
2018-07-27T18:33:19.885Z,24.00
2018-07-27T18:35:49.028Z,24.00
2018-07-27T18:38:18.084Z,24.00
2018-07-27T18:40:47.817Z,24.00
2018-07-27T18:43:16.797Z,24.00
2018-07-27T18:45:45.795Z,24.00
2018-07-27T18:48:14.875Z,24.00
2018-07-27T18:50:43.879Z,24.00
2018-07-27T18:53:12.877Z,23.90
2018-07-27T18:55:41.908Z,23.90
2018-07-27T18:58:10.997Z,23.80
2018-07-27T19:00:39.980Z,23.80
2018-07-27T19:03:09.055Z,23.80
2018-07-27T19:05:38.039Z,23.70
2018-07-27T19:08:07.013Z,23.60
2018-07-27T19:10:36.031Z,23.60
2018-07-27T19:13:05.269Z,23.50
2018-07-27T19:15:34.349Z,23.50
2018-07-27T19:18:03.391Z,23.50
2018-07-27T19:20:32.385Z,23.50
2018-07-27T19:23:01.381Z,23.40
2018-07-27T19:25:30.357Z,23.40
2018-07-27T19:27:59.559Z,23.40
2018-07-27T19:30:28.625Z,23.40
2018-07-27T19:32:57.789Z,23.30
2018-07-27T19:35:26.889Z,23.30
2018-07-27T19:37:55.952Z,23.30
2018-07-27T19:40:24.986Z,23.30
2018-07-27T19:42:53.956Z,23.20
2018-07-27T19:47:51.782Z,23.10
2018-07-27T19:50:20.791Z,23.00
2018-07-27T19:52:50.309Z,23.00
2018-07-27T19:55:19.348Z,22.90
2018-07-27T19:57:48.409Z,22.90
2018-07-27T20:00:17.405Z,22.90
2018-07-27T20:02:46.404Z,23.00
2018-07-27T20:05:15.374Z,23.00
2018-07-27T20:07:44.366Z,23.10
2018-07-27T20:10:13.446Z,23.10
2018-07-27T20:12:42.448Z,23.20
2018-07-27T20:15:11.606Z,23.10
2018-07-27T20:17:40.562Z,23.10
2018-07-27T20:20:09.917Z,23.00
2018-07-27T20:22:39.060Z,23.00
2018-07-27T20:25:08.364Z,22.90
2018-07-27T20:27:37.314Z,22.90
2018-07-27T20:30:06.798Z,22.80
2018-07-27T20:32:35.782Z,22.80
2018-07-27T20:35:04.849Z,22.70
2018-07-27T20:37:33.874Z,22.80
2018-07-27T20:40:03.271Z,22.70
2018-07-27T20:42:32.310Z,22.60
2018-07-27T20:45:01.285Z,22.50
2018-07-27T20:47:30.431Z,22.50
2018-07-27T20:49:59.523Z,22.40
2018-07-27T20:52:29.215Z,22.30
2018-07-27T20:54:58.161Z,22.30
2018-07-27T20:57:27.463Z,22.30
2018-07-27T20:59:56.457Z,22.20
2018-07-27T21:02:25.539Z,22.20
2018-07-27T21:04:54.493Z,22.20
2018-07-27T21:07:24.154Z,22.20
2018-07-27T21:09:53.230Z,22.20
2018-07-27T21:12:22.341Z,22.20
2018-07-27T21:14:51.402Z,22.10
2018-07-27T21:17:20.503Z,22.10
2018-07-27T21:19:49.511Z,22.00
2018-07-27T21:22:18.443Z,22.00
2018-07-27T21:24:47.408Z,22.00
2018-07-27T21:27:16.708Z,22.00
2018-07-27T21:29:45.901Z,22.00
2018-07-27T21:32:14.864Z,21.90
2018-07-27T21:34:43.854Z,21.90
2018-07-27T21:37:13.460Z,21.90
2018-07-27T21:39:42.501Z,21.80
2018-07-27T21:42:12.595Z,21.80
2018-07-27T21:44:41.804Z,21.80
2018-07-27T21:47:11.738Z,21.80
2018-07-27T21:49:40.697Z,21.80
2018-07-27T21:52:09.645Z,21.80
2018-07-27T21:54:38.622Z,21.80
2018-07-27T21:57:07.561Z,21.70
2018-07-27T21:59:36.710Z,21.80
2018-07-27T22:02:05.675Z,21.80
2018-07-27T22:04:34.846Z,21.70
2018-07-27T22:07:03.822Z,21.70
2018-07-27T22:09:32.784Z,21.70
2018-07-27T22:12:01.773Z,21.70
2018-07-27T22:14:30.784Z,21.60
2018-07-27T22:16:59.776Z,21.60
2018-07-27T22:19:28.716Z,21.60
2018-07-27T22:21:57.778Z,21.60
2018-07-27T22:24:26.727Z,21.50
2018-07-27T22:26:55.672Z,21.50
2018-07-27T22:29:24.593Z,21.50
2018-07-27T22:31:53.556Z,21.50
2018-07-27T22:34:22.542Z,21.50
2018-07-27T22:36:53.032Z,21.50
2018-07-27T22:39:22.270Z,21.40
2018-07-27T22:41:51.214Z,21.40
2018-07-27T22:44:20.152Z,21.40
2018-07-27T22:46:49.150Z,21.40
2018-07-27T22:49:18.092Z,21.40
2018-07-27T22:51:47.032Z,21.40
2018-07-27T22:54:15.953Z,21.40
2018-07-27T22:56:45.067Z,21.40
2018-07-27T22:59:14.490Z,21.40
2018-07-27T23:01:43.467Z,21.30
2018-07-27T23:04:12.515Z,21.40
2018-07-27T23:06:41.464Z,21.40
2018-07-27T23:09:11.777Z,21.40
2018-07-27T23:11:40.730Z,21.40
2018-07-27T23:14:10.061Z,21.30
2018-07-27T23:16:39.343Z,21.30
2018-07-27T23:19:08.260Z,21.30
2018-07-27T23:21:37.225Z,21.30
2018-07-27T23:24:06.406Z,21.30
2018-07-27T23:26:35.683Z,21.20
2018-07-27T23:29:04.678Z,21.20
2018-07-27T23:31:33.979Z,21.20
2018-07-27T23:34:02.926Z,21.20
2018-07-27T23:36:31.862Z,21.10
2018-07-27T23:39:01.159Z,21.10
2018-07-27T23:41:30.298Z,21.10
2018-07-27T23:43:59.374Z,21.00
2018-07-27T23:46:28.322Z,21.00
2018-07-27T23:48:57.396Z,21.00
2018-07-27T23:51:26.302Z,21.00
2018-07-27T23:53:55.716Z,21.00
2018-07-27T23:56:24.669Z,21.00
2018-07-27T23:58:54.404Z,20.90
